createdAt,value
2023-02-24T00:00:33.929Z,99.90
2023-02-24T00:03:06.204Z,99.90
2023-02-24T00:05:33.970Z,99.90
2023-02-24T00:08:00.659Z,99.90
2023-02-24T00:10:27.376Z,99.90
2023-02-24T00:12:54.018Z,99.90
2023-02-24T00:15:20.710Z,99.90
2023-02-24T00:17:47.360Z,99.90
2023-02-24T00:20:16.599Z,99.90
2023-02-24T00:22:44.961Z,99.90
2023-02-24T00:25:12.839Z,99.90
2023-02-24T00:27:39.553Z,99.90
2023-02-24T00:30:06.684Z,99.90
2023-02-24T00:32:35.669Z,99.90
2023-02-24T00:35:02.575Z,99.90
2023-02-24T00:37:29.724Z,99.90
2023-02-24T00:39:58.671Z,99.90
2023-02-24T00:42:25.656Z,99.90
2023-02-24T00:44:54.138Z,99.90
2023-02-24T00:47:22.492Z,99.90
2023-02-24T00:49:50.277Z,99.90
2023-02-24T00:52:18.820Z,99.90
2023-02-24T00:54:48.880Z,99.90
2023-02-24T00:57:18.256Z,99.90
2023-02-24T00:59:47.881Z,99.90
2023-02-24T01:02:14.966Z,99.90
2023-02-24T01:04:42.557Z,99.90
2023-02-24T01:07:11.161Z,99.90
2023-02-24T01:09:38.795Z,99.90
2023-02-24T01:12:26.062Z,99.90
2023-02-24T01:14:53.139Z,99.90
2023-02-24T01:17:20.277Z,99.90
2023-02-24T01:19:50.154Z,99.90
2023-02-24T01:22:17.801Z,99.90
2023-02-24T01:24:44.875Z,99.90
2023-02-24T01:27:12.782Z,99.90
2023-02-24T01:29:39.636Z,99.90
2023-02-24T01:32:07.218Z,99.90
2023-02-24T01:34:35.064Z,99.90
2023-02-24T01:37:01.994Z,99.90
2023-02-24T01:39:28.681Z,99.90
2023-02-24T01:41:55.475Z,99.90
2023-02-24T01:44:25.175Z,99.90
2023-02-24T01:46:53.117Z,99.90
2023-02-24T01:49:20.325Z,99.90
2023-02-24T01:51:49.300Z,99.90
2023-02-24T01:54:19.168Z,99.90
2023-02-24T01:56:47.856Z,99.90
2023-02-24T01:59:16.051Z,99.90
2023-02-24T02:01:43.473Z,99.90
2023-02-24T02:04:18.964Z,99.90
2023-02-24T02:06:46.733Z,99.90
2023-02-24T02:09:15.389Z,99.90
2023-02-24T02:11:42.836Z,99.90
2023-02-24T02:14:09.702Z,99.90
2023-02-24T02:16:36.427Z,99.90
2023-02-24T02:19:21.975Z,99.90
2023-02-24T02:22:02.386Z,99.90
2023-02-24T02:24:52.382Z,99.90
2023-02-24T02:27:25.207Z,99.90
2023-02-24T02:29:56.307Z,99.90
2023-02-24T02:32:27.249Z,99.90
2023-02-24T02:35:08.945Z,99.90
2023-02-24T02:37:56.373Z,99.90
2023-02-24T02:40:28.317Z,99.90
2023-02-24T02:42:55.459Z,99.90
2023-02-24T02:45:37.368Z,99.90
2023-02-24T02:48:07.074Z,99.90
2023-02-24T02:50:43.376Z,99.90
2023-02-24T02:53:13.289Z,99.90
2023-02-24T02:55:48.323Z,99.90
2023-02-24T02:58:20.150Z,99.90
2023-02-24T03:00:58.754Z,99.90
2023-02-24T03:03:28.674Z,99.90
2023-02-24T03:06:22.408Z,99.90
2023-02-24T03:08:55.638Z,99.90
2023-02-24T03:11:22.743Z,99.90
2023-02-24T03:13:52.740Z,99.90
2023-02-24T03:16:20.729Z,99.90
2023-02-24T03:18:53.397Z,99.90
2023-02-24T03:21:25.470Z,99.90
2023-02-24T03:23:52.525Z,99.90
2023-02-24T03:26:23.437Z,99.90
2023-02-24T03:29:01.214Z,99.90
2023-02-24T03:31:54.410Z,99.90
2023-02-24T03:34:24.156Z,99.90
2023-02-24T03:36:50.914Z,99.90
2023-02-24T03:39:17.979Z,99.90
2023-02-24T03:41:56.190Z,99.90
2023-02-24T03:44:24.853Z,99.90
2023-02-24T03:46:52.046Z,99.90
2023-02-24T03:49:18.711Z,99.90
2023-02-24T03:51:57.086Z,99.90
2023-02-24T03:54:38.858Z,99.90
2023-02-24T03:57:25.141Z,99.90
2023-02-24T03:59:58.691Z,99.90
2023-02-24T04:02:28.535Z,99.90
2023-02-24T04:04:55.444Z,99.90
2023-02-24T04:07:40.875Z,99.90
2023-02-24T04:10:16.873Z,99.90
2023-02-24T04:12:52.174Z,99.90
2023-02-24T04:15:33.523Z,99.90
2023-02-24T04:18:01.281Z,99.90
2023-02-24T04:20:30.875Z,99.90
2023-02-24T04:23:11.382Z,99.90
2023-02-24T04:25:39.008Z,99.90
2023-02-24T04:28:10.108Z,99.90
2023-02-24T04:30:40.006Z,99.90
2023-02-24T04:33:06.925Z,99.90
2023-02-24T04:35:34.103Z,99.90
2023-02-24T04:38:00.798Z,99.90
2023-02-24T04:40:27.551Z,99.90
2023-02-24T04:42:54.618Z,99.90
2023-02-24T04:45:26.028Z,99.90
2023-02-24T04:47:56.228Z,99.90
2023-02-24T04:50:25.030Z,99.90
2023-02-24T04:53:00.900Z,99.90
2023-02-24T04:55:29.644Z,99.90
2023-02-24T04:57:57.061Z,99.90
2023-02-24T05:00:26.446Z,99.90
2023-02-24T05:02:54.420Z,99.90
2023-02-24T05:05:30.149Z,99.90
2023-02-24T05:08:02.977Z,99.90
2023-02-24T05:10:40.354Z,99.90
2023-02-24T05:13:09.129Z,99.90
2023-02-24T05:15:39.058Z,99.90
2023-02-24T05:18:09.473Z,99.90
2023-02-24T05:21:01.639Z,99.90
2023-02-24T05:23:39.423Z,99.90
2023-02-24T05:26:09.657Z,99.90
2023-02-24T05:28:37.735Z,99.90
2023-02-24T05:31:06.346Z,99.90
2023-02-24T05:33:33.729Z,99.90
2023-02-24T05:36:05.756Z,99.90
2023-02-24T05:38:32.560Z,99.90
2023-02-24T05:41:04.935Z,99.90
2023-02-24T05:43:31.626Z,99.90
2023-02-24T05:46:07.167Z,99.90
2023-02-24T05:48:35.359Z,99.90
2023-02-24T05:51:05.204Z,99.90
2023-02-24T05:53:31.995Z,99.90
2023-02-24T05:56:00.590Z,99.90
2023-02-24T05:58:29.135Z,99.90
2023-02-24T06:00:56.368Z,99.90
2023-02-24T06:03:31.024Z,99.90
2023-02-24T06:06:06.241Z,99.90
2023-02-24T06:08:42.240Z,99.90
2023-02-24T06:11:11.975Z,99.90
2023-02-24T06:13:38.878Z,99.90
2023-02-24T06:16:06.310Z,99.90
2023-02-24T06:18:33.067Z,99.90
2023-02-24T06:21:03.074Z,99.90
2023-02-24T06:23:29.775Z,99.90
2023-02-24T06:26:01.287Z,99.90
2023-02-24T06:28:28.363Z,99.90
2023-02-24T06:30:56.184Z,99.90
2023-02-24T06:33:24.451Z,99.90
2023-02-24T06:35:51.494Z,99.90
2023-02-24T06:38:18.186Z,99.90
2023-02-24T06:40:44.834Z,99.90
2023-02-24T06:43:11.472Z,99.90
2023-02-24T06:45:38.292Z,99.90
2023-02-24T06:48:05.078Z,99.90
2023-02-24T06:50:32.887Z,99.90
2023-02-24T06:53:00.875Z,99.90
2023-02-24T06:55:27.942Z,99.90
2023-02-24T06:57:58.696Z,99.90
2023-02-24T07:00:42.927Z,99.90
2023-02-24T07:03:16.521Z,99.90
2023-02-24T07:05:50.165Z,99.90
2023-02-24T07:08:17.930Z,99.90
2023-02-24T07:10:44.977Z,99.90
2023-02-24T07:13:13.563Z,99.90
2023-02-24T07:15:54.102Z,99.90
2023-02-24T07:18:20.820Z,99.90
2023-02-24T07:20:47.509Z,99.90
2023-02-24T07:23:17.136Z,99.90
2023-02-24T07:25:46.329Z,99.90
2023-02-24T07:28:13.985Z,99.90
2023-02-24T07:30:41.255Z,99.90
2023-02-24T07:33:08.618Z,99.90
2023-02-24T07:35:41.500Z,99.90
2023-02-24T07:38:08.538Z,99.90
2023-02-24T07:40:36.368Z,99.90
2023-02-24T07:43:06.366Z,99.90
2023-02-24T07:45:33.098Z,99.90
2023-02-24T07:48:01.740Z,99.90
2023-02-24T07:50:32.775Z,99.90
2023-02-24T07:52:59.715Z,99.90
2023-02-24T07:55:31.190Z,99.90
2023-02-24T07:57:57.904Z,99.90
2023-02-24T08:00:28.371Z,99.90
2023-02-24T08:02:55.941Z,99.90
2023-02-24T08:05:24.475Z,99.90
2023-02-24T08:07:52.093Z,99.90
2023-02-24T08:10:25.718Z,99.90
2023-02-24T08:12:56.373Z,99.90
2023-02-24T08:15:33.890Z,99.90
2023-02-24T08:18:01.114Z,99.90
2023-02-24T08:20:29.861Z,99.90
2023-02-24T08:22:56.793Z,99.90
2023-02-24T08:25:25.722Z,99.90
2023-02-24T08:28:12.114Z,99.90
2023-02-24T08:30:44.924Z,99.90
2023-02-24T08:33:16.119Z,99.90
2023-02-24T08:35:44.982Z,99.90
2023-02-24T08:38:18.637Z,99.90
2023-02-24T08:40:58.683Z,99.90
2023-02-24T08:43:29.790Z,99.90
2023-02-24T08:46:05.460Z,99.90
2023-02-24T08:48:38.548Z,99.90
2023-02-24T08:51:15.135Z,99.90
2023-02-24T08:53:42.440Z,99.90
2023-02-24T08:56:11.607Z,99.90
2023-02-24T08:58:47.271Z,99.90
2023-02-24T09:01:20.498Z,99.90
2023-02-24T09:03:48.502Z,99.90
2023-02-24T09:06:16.923Z,99.90
2023-02-24T09:08:45.238Z,99.90
2023-02-24T09:11:13.990Z,99.50
2023-02-24T09:13:58.193Z,99.90
2023-02-24T09:16:25.173Z,98.30
2023-02-24T09:19:12.174Z,97.60
2023-02-24T09:22:10.418Z,97.30
2023-02-24T09:24:40.511Z,96.30
2023-02-24T09:27:07.450Z,96.30
2023-02-24T09:29:34.129Z,96.40
2023-02-24T09:32:05.360Z,97.00
2023-02-24T09:34:32.039Z,94.60
2023-02-24T09:37:03.365Z,95.30
2023-02-24T09:39:38.053Z,94.40
2023-02-24T09:42:07.484Z,94.30
2023-02-24T09:44:36.662Z,93.60
2023-02-24T09:47:09.895Z,93.10
2023-02-24T09:49:46.624Z,93.90
2023-02-24T09:52:17.576Z,93.10
2023-02-24T09:55:10.595Z,91.90
2023-02-24T09:58:01.693Z,92.10
2023-02-24T10:00:33.610Z,92.70
2023-02-24T10:03:03.913Z,92.40
2023-02-24T10:05:38.688Z,92.00
2023-02-24T10:08:14.148Z,92.30
2023-02-24T10:11:00.787Z,91.90
2023-02-24T10:13:32.593Z,91.70
2023-02-24T10:16:07.004Z,91.00
2023-02-24T10:19:11.792Z,91.10
2023-02-24T10:22:02.564Z,92.40
2023-02-24T10:24:37.109Z,90.00
2023-02-24T10:27:16.692Z,88.80
2023-02-24T10:30:19.557Z,88.60
2023-02-24T10:32:54.667Z,88.20
2023-02-24T10:35:26.024Z,85.30
2023-02-24T10:37:53.736Z,85.30
2023-02-24T10:40:45.066Z,82.90
2023-02-24T10:43:17.854Z,83.90
2023-02-24T10:45:45.816Z,85.80
2023-02-24T10:48:41.048Z,85.30
2023-02-24T10:51:20.412Z,85.10
2023-02-24T10:54:08.763Z,83.20
2023-02-24T10:56:44.494Z,83.80
2023-02-24T10:59:25.423Z,83.70
2023-02-24T11:02:02.972Z,84.20
2023-02-24T11:04:44.206Z,83.90
2023-02-24T11:07:12.893Z,85.30
2023-02-24T11:09:52.674Z,84.90
2023-02-24T11:13:09.040Z,85.90
2023-02-24T11:16:02.725Z,85.70
2023-02-24T11:18:30.546Z,84.10
2023-02-24T11:21:04.792Z,85.60
2023-02-24T11:23:35.818Z,85.40
2023-02-24T11:26:04.757Z,86.30
2023-02-24T11:28:50.244Z,86.40
2023-02-24T11:31:46.457Z,86.30
2023-02-24T11:34:15.978Z,85.60
2023-02-24T11:36:43.437Z,85.50
2023-02-24T11:39:24.062Z,85.30
2023-02-24T11:41:55.578Z,85.30
2023-02-24T11:44:30.591Z,85.70
2023-02-24T11:47:00.680Z,85.50
2023-02-24T11:49:36.022Z,85.70
2023-02-24T11:52:04.702Z,83.80
2023-02-24T11:54:36.229Z,82.90
2023-02-24T11:57:03.892Z,80.70
2023-02-24T11:59:36.916Z,81.20
2023-02-24T12:02:14.338Z,79.90
2023-02-24T12:04:46.525Z,80.10
2023-02-24T12:07:13.153Z,79.30
2023-02-24T12:09:53.754Z,78.00
2023-02-24T12:12:28.978Z,79.80
2023-02-24T12:15:00.672Z,79.00
2023-02-24T12:17:47.183Z,79.70
2023-02-24T12:20:23.522Z,78.70
2023-02-24T12:22:52.817Z,75.50
2023-02-24T12:25:25.305Z,76.10
2023-02-24T12:27:57.952Z,78.10
2023-02-24T12:30:48.841Z,75.00
2023-02-24T12:33:34.528Z,74.40
2023-02-24T12:36:21.019Z,75.00
2023-02-24T12:38:50.805Z,74.20
2023-02-24T12:41:29.742Z,74.30
2023-02-24T12:44:02.362Z,74.40
2023-02-24T12:46:29.014Z,74.00
2023-02-24T12:48:58.671Z,73.90
2023-02-24T12:51:31.422Z,72.90
2023-02-24T12:54:33.756Z,73.20
2023-02-24T12:57:18.517Z,75.40
2023-02-24T12:59:45.650Z,72.90
2023-02-24T13:02:31.249Z,72.60
2023-02-24T13:05:19.923Z,73.40
2023-02-24T13:08:01.452Z,72.20
2023-02-24T13:10:37.691Z,71.00
2023-02-24T13:13:13.856Z,69.90
2023-02-24T13:15:49.397Z,68.80
2023-02-24T13:18:23.872Z,69.90
2023-02-24T13:21:01.036Z,69.80
2023-02-24T13:23:27.721Z,69.70
2023-02-24T13:25:55.598Z,68.20
2023-02-24T13:28:22.240Z,68.90
2023-02-24T13:30:57.911Z,69.90
2023-02-24T13:33:28.493Z,69.90
2023-02-24T13:36:20.118Z,71.30
2023-02-24T13:38:48.100Z,71.30
2023-02-24T13:41:35.974Z,71.60
2023-02-24T13:44:22.888Z,72.60
2023-02-24T13:46:59.047Z,70.10
2023-02-24T13:49:40.521Z,70.10
2023-02-24T13:52:13.421Z,69.80
2023-02-24T13:54:58.745Z,70.70
2023-02-24T13:57:34.298Z,71.20
2023-02-24T14:00:12.111Z,69.80
2023-02-24T14:02:42.905Z,69.30
2023-02-24T14:05:16.637Z,69.60
2023-02-24T14:07:43.380Z,69.50
2023-02-24T14:10:19.211Z,69.60
2023-02-24T14:12:47.230Z,69.00
2023-02-24T14:15:16.114Z,68.70
2023-02-24T14:17:42.871Z,70.20
2023-02-24T14:20:09.568Z,69.30
2023-02-24T14:22:43.205Z,67.20
2023-02-24T14:25:10.809Z,67.40
2023-02-24T14:27:38.368Z,66.80
2023-02-24T14:30:06.010Z,67.30
2023-02-24T14:32:33.316Z,67.80
2023-02-24T14:35:00.208Z,67.00
2023-02-24T14:37:28.719Z,67.80
2023-02-24T14:39:56.931Z,68.30
2023-02-24T14:42:23.940Z,69.40
2023-02-24T14:44:52.037Z,69.90
2023-02-24T14:47:19.908Z,66.90
2023-02-24T14:49:56.164Z,67.30
2023-02-24T14:52:22.778Z,68.40
2023-02-24T14:54:53.604Z,68.10
2023-02-24T14:57:23.157Z,66.30
2023-02-24T14:59:52.428Z,66.00
2023-02-24T15:02:24.433Z,67.10
2023-02-24T15:04:53.582Z,66.90
2023-02-24T15:07:22.290Z,67.90
2023-02-24T15:09:49.169Z,68.70
2023-02-24T15:12:18.962Z,67.50
2023-02-24T15:14:50.442Z,67.80
2023-02-24T15:17:18.264Z,68.80
2023-02-24T15:19:51.117Z,68.20
2023-02-24T15:22:46.981Z,69.60
2023-02-24T15:25:28.041Z,70.30
2023-02-24T15:27:57.635Z,71.50
2023-02-24T15:30:44.635Z,69.90
2023-02-24T15:33:14.384Z,69.10
2023-02-24T15:35:47.239Z,68.60
2023-02-24T15:38:24.443Z,69.00
2023-02-24T15:40:56.094Z,69.80
2023-02-24T15:43:34.859Z,70.50
2023-02-24T15:46:12.924Z,71.00
2023-02-24T15:48:42.022Z,71.20
2023-02-24T15:51:14.354Z,73.00
2023-02-24T15:53:41.055Z,71.70
2023-02-24T15:56:07.728Z,71.80
2023-02-24T15:58:34.893Z,71.50
2023-02-24T16:01:01.645Z,73.10
2023-02-24T16:03:28.341Z,73.40
2023-02-24T16:05:54.988Z,73.80
2023-02-24T16:08:21.802Z,74.70
2023-02-24T16:10:50.541Z,75.60
2023-02-24T16:13:21.942Z,74.40
2023-02-24T16:15:49.618Z,74.50
2023-02-24T16:18:22.376Z,74.30
2023-02-24T16:20:56.747Z,75.00
2023-02-24T16:23:25.552Z,75.40
2023-02-24T16:25:55.217Z,74.90
2023-02-24T16:28:22.376Z,75.80
2023-02-24T16:30:50.272Z,76.30
2023-02-24T16:33:17.927Z,78.10
2023-02-24T16:35:45.208Z,78.70
2023-02-24T16:38:16.056Z,78.70
2023-02-24T16:40:44.094Z,79.10
2023-02-24T16:43:11.609Z,80.80
2023-02-24T16:45:42.164Z,81.50
2023-02-24T16:48:13.580Z,81.00
2023-02-24T16:50:41.046Z,81.30
2023-02-24T16:53:08.094Z,82.00
2023-02-24T16:55:34.816Z,80.10
2023-02-24T16:58:01.575Z,80.00
2023-02-24T17:00:28.357Z,81.30
2023-02-24T17:02:55.046Z,81.20
2023-02-24T17:05:23.559Z,81.50
2023-02-24T17:07:51.434Z,82.20
2023-02-24T17:10:18.822Z,82.50
2023-02-24T17:12:45.506Z,83.50
2023-02-24T17:15:16.345Z,84.30
2023-02-24T17:17:43.278Z,83.70
2023-02-24T17:20:14.272Z,84.20
2023-02-24T17:22:41.067Z,83.50
2023-02-24T17:25:08.049Z,84.70
2023-02-24T17:27:34.728Z,85.60
2023-02-24T17:30:01.435Z,85.70
2023-02-24T17:32:28.394Z,87.50
2023-02-24T17:34:55.175Z,87.40
2023-02-24T17:37:21.948Z,86.80
2023-02-24T17:39:48.627Z,87.20
2023-02-24T17:42:15.526Z,88.30
2023-02-24T17:44:42.790Z,88.20
2023-02-24T17:47:09.524Z,88.30
2023-02-24T17:49:36.274Z,88.80
2023-02-24T17:52:05.876Z,88.80
2023-02-24T17:54:33.298Z,89.20
2023-02-24T17:56:59.961Z,90.30
2023-02-24T17:59:26.629Z,90.80
2023-02-24T18:01:53.975Z,92.00
2023-02-24T18:04:20.702Z,91.50
2023-02-24T18:06:47.503Z,92.60
2023-02-24T18:09:14.267Z,92.90
2023-02-24T18:11:40.954Z,92.80
2023-02-24T18:14:07.754Z,92.70
2023-02-24T18:16:34.515Z,93.60
2023-02-24T18:19:01.226Z,94.30
2023-02-24T18:21:27.884Z,94.40
2023-02-24T18:23:54.732Z,94.10
2023-02-24T18:26:24.034Z,94.50
2023-02-24T18:28:53.625Z,93.90
2023-02-24T18:31:22.084Z,93.20
2023-02-24T18:33:49.410Z,94.20
2023-02-24T18:36:16.513Z,94.70
2023-02-24T18:38:43.545Z,94.80
2023-02-24T18:41:12.499Z,95.20
2023-02-24T18:43:39.174Z,95.00
2023-02-24T18:46:07.048Z,95.00
2023-02-24T18:48:34.463Z,95.70
2023-02-24T18:51:01.366Z,95.10
2023-02-24T18:53:29.222Z,94.40
2023-02-24T18:56:03.352Z,94.40
2023-02-24T18:58:30.211Z,94.40
2023-02-24T19:00:56.933Z,95.40
2023-02-24T19:03:24.002Z,95.40
2023-02-24T19:05:50.801Z,95.40
2023-02-24T19:08:17.663Z,95.50
2023-02-24T19:10:44.445Z,95.30
2023-02-24T19:13:11.177Z,95.00
2023-02-24T19:15:38.254Z,95.00
2023-02-24T19:18:05.467Z,95.60
2023-02-24T19:20:32.173Z,97.10
2023-02-24T19:22:58.895Z,96.10
2023-02-24T19:25:25.549Z,95.30
2023-02-24T19:27:53.308Z,95.00
2023-02-24T19:30:20.102Z,95.20
2023-02-24T19:32:47.033Z,95.50
2023-02-24T19:35:13.912Z,95.60
2023-02-24T19:37:40.631Z,95.20
2023-02-24T19:40:07.491Z,95.30
2023-02-24T19:42:34.297Z,95.90
2023-02-24T19:45:00.986Z,95.20
2023-02-24T19:47:27.850Z,95.70
2023-02-24T19:49:54.606Z,95.00
2023-02-24T19:52:21.262Z,94.60
2023-02-24T19:54:47.955Z,94.80
2023-02-24T19:57:14.727Z,95.10
2023-02-24T19:59:41.437Z,94.80
2023-02-24T20:02:09.628Z,95.30
2023-02-24T20:04:36.354Z,95.40
2023-02-24T20:07:03.129Z,95.40
2023-02-24T20:09:29.818Z,96.70
2023-02-24T20:11:58.143Z,96.90
2023-02-24T20:14:27.811Z,97.20
2023-02-24T20:16:54.473Z,96.70
2023-02-24T20:19:21.124Z,97.30
2023-02-24T20:21:47.882Z,97.30
2023-02-24T20:24:15.513Z,96.80
2023-02-24T20:26:43.419Z,97.30
2023-02-24T20:29:11.465Z,97.00
2023-02-24T20:31:38.444Z,96.90
2023-02-24T20:34:05.736Z,97.20
2023-02-24T20:36:32.634Z,97.40
2023-02-24T20:38:59.529Z,96.70
2023-02-24T20:41:27.134Z,96.90
2023-02-24T20:43:54.703Z,97.50
2023-02-24T20:46:25.554Z,98.30
2023-02-24T20:48:55.072Z,98.60
2023-02-24T20:51:21.740Z,98.70
2023-02-24T20:53:57.242Z,99.10
2023-02-24T20:56:25.365Z,99.00
2023-02-24T20:58:53.224Z,99.50
2023-02-24T21:01:20.554Z,99.90
2023-02-24T21:03:47.482Z,99.90
2023-02-24T21:06:14.843Z,99.90
2023-02-24T21:08:41.622Z,99.90
2023-02-24T21:11:10.954Z,99.90
2023-02-24T21:13:42.614Z,99.90
2023-02-24T21:16:10.128Z,99.70
2023-02-24T21:18:38.352Z,99.90
2023-02-24T21:21:05.668Z,99.90
2023-02-24T21:23:32.799Z,99.90
2023-02-24T21:25:59.477Z,99.90
2023-02-24T21:28:26.157Z,99.90
2023-02-24T21:30:53.213Z,99.90
2023-02-24T21:33:19.954Z,99.90
2023-02-24T21:35:56.868Z,99.90
2023-02-24T21:38:23.785Z,99.90
2023-02-24T21:40:50.438Z,99.90
2023-02-24T21:43:17.997Z,99.90
2023-02-24T21:45:45.508Z,99.90
2023-02-24T21:48:12.289Z,99.90
2023-02-24T21:50:38.930Z,99.90
2023-02-24T21:53:06.185Z,99.90
2023-02-24T21:55:34.082Z,99.90
2023-02-24T21:58:00.766Z,99.90
2023-02-24T22:00:28.648Z,99.90
2023-02-24T22:02:56.104Z,99.90
2023-02-24T22:05:24.353Z,99.90
2023-02-24T22:07:51.192Z,99.90
2023-02-24T22:10:19.648Z,99.90
2023-02-24T22:12:46.928Z,99.90
2023-02-24T22:15:13.789Z,99.90
2023-02-24T22:17:41.166Z,99.90
2023-02-24T22:20:09.855Z,99.90
2023-02-24T22:22:37.317Z,99.90
2023-02-24T22:25:05.056Z,99.90
2023-02-24T22:27:31.721Z,99.90
2023-02-24T22:29:58.486Z,99.90
2023-02-24T22:32:25.343Z,99.90
2023-02-24T22:34:52.134Z,99.90
2023-02-24T22:37:18.961Z,99.90
2023-02-24T22:39:45.618Z,99.90
2023-02-24T22:42:12.287Z,99.90
2023-02-24T22:44:38.956Z,99.90
2023-02-24T22:47:05.674Z,99.90
2023-02-24T22:49:32.412Z,99.90
2023-02-24T22:51:59.059Z,99.90
2023-02-24T22:54:25.795Z,99.90
2023-02-24T22:56:55.990Z,99.90
2023-02-24T22:59:22.796Z,99.90
2023-02-24T23:01:49.462Z,99.90
2023-02-24T23:04:16.892Z,99.90
2023-02-24T23:06:44.520Z,99.90
2023-02-24T23:09:11.554Z,99.90
2023-02-24T23:11:39.182Z,99.90
2023-02-24T23:14:09.900Z,99.90
2023-02-24T23:16:37.436Z,99.90
2023-02-24T23:19:05.752Z,99.90
2023-02-24T23:21:34.133Z,99.90
2023-02-24T23:24:01.195Z,99.90
2023-02-24T23:26:28.998Z,99.90
2023-02-24T23:28:55.710Z,99.90
2023-02-24T23:31:22.916Z,99.90
2023-02-24T23:33:50.653Z,99.90
2023-02-24T23:36:17.709Z,99.90
2023-02-24T23:38:44.884Z,99.90
2023-02-24T23:41:12.121Z,99.90
2023-02-24T23:43:39.019Z,99.90
2023-02-24T23:46:06.655Z,99.90
2023-02-24T23:48:33.508Z,99.90
2023-02-24T23:51:02.389Z,99.90
2023-02-24T23:53:29.014Z,99.90
2023-02-24T23:55:55.665Z,99.90
2023-02-24T23:58:22.310Z,99.90
